Time,TemperatureF,DewpointF,PressureIn,WindDirection,WindDirectionDegrees,WindSpeedMPH,WindSpeedGustMPH,Humidity,HourlyPrecipIn,Conditions,Clouds,dailyrainin,SoftwareType,DateUTC
2013-01-10 00:03:00,48.2,47.0,30.54,NNE,27,4.0,8.0,94,0.00,,,0.44,weatherlink.com 1.10,2013-01-10 05:03:00,
2013-01-10 00:18:00,48.8,47.0,30.54,NNE,27,3.0,10.0,94,0.00,,,0.00,weatherlink.com 1.10,2013-01-10 05:18:00,
2013-01-10 00:50:00,49.5,48.0,30.53,NNW,338,5.0,11.0,93,0.00,,,0.00,weatherlink.com 1.10,2013-01-10 05:50:00,
2013-01-10 01:04:00,49.4,48.0,30.54,NE,46,6.0,10.0,93,0.00,,,0.00,weatherlink.com 1.10,2013-01-10 06:04:00,
2013-01-10 01:19:00,49.3,48.0,30.53,ENE,77,5.0,8.0,94,0.00,,,0.00,weatherlink.com 1.10,2013-01-10 06:19:00,
2013-01-10 01:34:00,49.6,48.0,30.51,NNW,332,4.0,10.0,93,0.00,,,0.00,weatherlink.com 1.10,2013-01-10 06:34:00,
2013-01-10 01:49:00,49.7,48.0,30.52,East,81,2.0,11.0,94,0.00,,,0.00,weatherlink.com 1.10,2013-01-10 06:49:00,
2013-01-10 02:04:00,50.0,48.0,30.52,East,91,6.0,8.0,93,0.00,,,0.00,weatherlink.com 1.10,2013-01-10 07:04:00,
2013-01-10 02:19:00,50.3,48.0,30.53,SE,144,2.0,8.0,93,0.00,,,0.00,weatherlink.com 1.10,2013-01-10 07:19:00,
2013-01-10 02:34:00,49.1,48.0,30.53,ESE,103,5.0,6.0,94,0.00,,,0.00,weatherlink.com 1.10,2013-01-10 07:34:00,
2013-01-10 02:49:00,48.1,47.0,30.53,ESE,117,5.0,8.0,95,0.00,,,0.00,weatherlink.com 1.10,2013-01-10 07:49:00,
2013-01-10 03:04:00,48.3,47.0,30.53,East,91,4.0,5.0,95,0.00,,,0.00,weatherlink.com 1.10,2013-01-10 08:04:00,
2013-01-10 03:19:00,48.4,47.0,30.52,ENE,61,5.0,5.0,95,0.00,,,0.00,weatherlink.com 1.10,2013-01-10 08:19:00,
2013-01-10 03:34:00,48.3,47.0,30.53,NNE,15,3.0,4.0,95,0.00,,,0.00,weatherlink.com 1.10,2013-01-10 08:34:00,
2013-01-10 03:49:00,49.1,48.0,30.52,NE,49,4.0,7.0,95,0.00,,,0.00,weatherlink.com 1.10,2013-01-10 08:49:00,
2013-01-10 04:04:00,50.0,48.0,30.51,NE,45,6.0,9.0,94,0.00,,,0.00,weatherlink.com 1.10,2013-01-10 09:04:00,
2013-01-10 04:19:00,50.3,48.0,30.51,East,94,2.0,9.0,93,0.00,,,0.00,weatherlink.com 1.10,2013-01-10 09:19:00,
2013-01-10 04:34:00,50.6,48.0,30.50,ENE,58,4.0,7.0,92,0.00,,,0.00,weatherlink.com 1.10,2013-01-10 09:34:00,
2013-01-10 04:49:00,50.7,49.0,30.50,East,90,4.0,6.0,92,0.00,,,0.00,weatherlink.com 1.10,2013-01-10 09:49:00,
2013-01-10 05:04:00,50.8,49.0,30.50,ENE,60,4.0,8.0,92,0.00,,,0.00,weatherlink.com 1.10,2013-01-10 10:04:00,
2013-01-10 05:19:00,51.0,49.0,30.50,ENE,63,4.0,8.0,91,0.00,,,0.00,weatherlink.com 1.10,2013-01-10 10:19:00,
2013-01-10 05:34:00,50.9,48.0,30.50,East,86,2.0,5.0,91,0.00,,,0.00,weatherlink.com 1.10,2013-01-10 10:34:00,
2013-01-10 05:49:00,50.6,48.0,30.50,East,91,2.0,6.0,92,0.00,,,0.00,weatherlink.com 1.10,2013-01-10 10:49:00,
2013-01-10 06:04:00,50.4,48.0,30.50,ENE,58,6.0,7.0,92,0.00,,,0.00,weatherlink.com 1.10,2013-01-10 11:04:00,
2013-01-10 06:19:00,50.6,48.0,30.50,NE,51,3.0,7.0,91,0.00,,,0.00,weatherlink.com 1.10,2013-01-10 11:19:00,
2013-01-10 06:34:00,50.3,48.0,30.50,NE,44,3.0,6.0,91,0.00,,,0.00,weatherlink.com 1.10,2013-01-10 11:34:00,
2013-01-10 06:49:00,50.4,48.0,30.50,NE,40,4.0,7.0,91,0.00,,,0.00,weatherlink.com 1.10,2013-01-10 11:49:00,
2013-01-10 07:04:00,50.5,48.0,30.50,ENE,58,3.0,9.0,91,0.00,,,0.00,weatherlink.com 1.10,2013-01-10 12:04:00,
2013-01-10 07:19:00,50.6,48.0,30.50,East,79,5.0,7.0,91,0.00,,,0.00,weatherlink.com 1.10,2013-01-10 12:19:00,
2013-01-10 07:34:00,50.6,48.0,30.49,ENE,73,8.0,8.0,90,0.00,,,0.00,weatherlink.com 1.10,2013-01-10 12:34:00,
2013-01-10 07:49:00,50.5,48.0,30.50,ENE,61,3.0,11.0,90,0.00,,,0.00,weatherlink.com 1.10,2013-01-10 12:49:00,
2013-01-10 08:04:00,50.3,48.0,30.50,NE,51,5.0,10.0,90,0.00,,,0.00,weatherlink.com 1.10,2013-01-10 13:04:00,
2013-01-10 08:19:00,50.4,48.0,30.51,ENE,71,4.0,10.0,90,0.00,,,0.00,weatherlink.com 1.10,2013-01-10 13:19:00,
2013-01-10 08:34:00,50.6,48.0,30.50,East,92,4.0,9.0,89,0.00,,,0.00,weatherlink.com 1.10,2013-01-10 13:34:00,
2013-01-10 08:49:00,50.6,48.0,30.50,ENE,58,6.0,9.0,89,0.00,,,0.00,weatherlink.com 1.10,2013-01-10 13:49:00,
2013-01-10 09:04:00,50.6,48.0,30.50,North,3,3.0,11.0,89,0.00,,,0.00,weatherlink.com 1.10,2013-01-10 14:04:00,
2013-01-10 09:19:00,51.1,47.0,30.51,ESE,121,4.0,9.0,87,0.00,,,0.00,weatherlink.com 1.10,2013-01-10 14:19:00,
2013-01-10 09:34:00,51.3,48.0,30.51,East,89,6.0,9.0,87,0.00,,,0.00,weatherlink.com 1.10,2013-01-10 14:34:00,
2013-01-10 09:49:00,51.9,48.0,30.51,ENE,70,0.0,8.0,87,0.00,,,0.00,weatherlink.com 1.10,2013-01-10 14:49:00,
2013-01-10 10:04:00,52.3,48.0,30.51,ENE,71,3.0,7.0,86,0.00,,,0.00,weatherlink.com 1.10,2013-01-10 15:04:00,
2013-01-10 10:19:00,52.4,48.0,30.51,East,87,5.0,11.0,85,0.00,,,0.00,weatherlink.com 1.10,2013-01-10 15:19:00,
2013-01-10 10:35:00,52.7,49.0,30.51,East,86,3.0,7.0,86,0.00,,,0.00,weatherlink.com 1.10,2013-01-10 15:35:00,
2013-01-10 10:50:00,53.2,49.0,30.50,ESE,105,1.0,5.0,85,0.00,,,0.00,weatherlink.com 1.10,2013-01-10 15:50:00,
2013-01-10 11:05:00,53.9,50.0,30.50,ENE,61,2.0,7.0,85,0.00,,,0.00,weatherlink.com 1.10,2013-01-10 16:05:00,
2013-01-10 11:20:00,54.1,50.0,30.49,East,96,2.0,6.0,85,0.00,,,0.00,weatherlink.com 1.10,2013-01-10 16:20:00,
2013-01-10 11:35:00,55.0,50.0,30.49,East,98,2.0,7.0,84,0.00,,,0.00,weatherlink.com 1.10,2013-01-10 16:35:00,
2013-01-10 11:50:00,55.8,50.0,30.47,East,85,1.0,6.0,82,0.00,,,0.00,weatherlink.com 1.10,2013-01-10 16:50:00,
2013-01-10 12:05:00,56.7,51.0,30.46,East,84,6.0,11.0,80,0.00,,,0.00,weatherlink.com 1.10,2013-01-10 17:05:00,
2013-01-10 12:20:00,56.2,51.0,30.45,ENE,65,0.0,8.0,82,0.00,,,0.00,weatherlink.com 1.10,2013-01-10 17:20:00,
2013-01-10 12:35:00,56.8,51.0,30.44,ENE,78,5.0,7.0,81,0.00,,,0.00,weatherlink.com 1.10,2013-01-10 17:35:00,
2013-01-10 12:50:00,57.7,52.0,30.42,ENE,62,0.0,7.0,80,0.00,,,0.00,weatherlink.com 1.10,2013-01-10 17:50:00,
2013-01-10 13:05:00,59.1,52.0,30.41,ESE,110,5.0,6.0,77,0.00,,,0.00,weatherlink.com 1.10,2013-01-10 18:05:00,
2013-01-10 13:20:00,60.4,52.0,30.41,East,79,1.0,3.0,75,0.00,,,0.00,weatherlink.com 1.10,2013-01-10 18:20:00,
2013-01-10 13:35:00,59.7,52.0,30.40,North,11,0.0,7.0,76,0.00,,,0.00,weatherlink.com 1.10,2013-01-10 18:35:00,
2013-01-10 13:50:00,60.6,52.0,30.39,East,82,1.0,5.0,74,0.00,,,0.00,weatherlink.com 1.10,2013-01-10 18:50:00,
2013-01-10 14:05:00,60.4,52.0,30.40,East,95,2.0,7.0,74,0.00,,,0.00,weatherlink.com 1.10,2013-01-10 19:05:00,
2013-01-10 14:20:00,61.4,53.0,30.39,East,82,1.0,4.0,73,0.00,,,0.00,weatherlink.com 1.10,2013-01-10 19:20:00,
2013-01-10 14:35:00,61.5,53.0,30.39,ESE,105,3.0,5.0,73,0.00,,,0.00,weatherlink.com 1.10,2013-01-10 19:35:00,
2013-01-10 14:50:00,61.7,53.0,30.39,SE,125,5.0,6.0,73,0.00,,,0.00,weatherlink.com 1.10,2013-01-10 19:50:00,
2013-01-10 15:05:00,61.6,53.0,30.38,East,81,3.0,5.0,73,0.00,,,0.00,weatherlink.com 1.10,2013-01-10 20:05:00,
2013-01-10 15:20:00,61.3,53.0,30.38,ESE,117,3.0,4.0,74,0.00,,,0.00,weatherlink.com 1.10,2013-01-10 20:20:00,
2013-01-10 15:35:00,61.6,53.0,30.37,ESE,120,3.0,6.0,73,0.00,,,0.00,weatherlink.com 1.10,2013-01-10 20:35:00,
2013-01-10 15:50:00,61.7,53.0,30.38,East,95,0.0,5.0,73,0.00,,,0.00,weatherlink.com 1.10,2013-01-10 20:50:00,
2013-01-10 16:05:00,61.3,53.0,30.38,East,101,2.0,6.0,74,0.00,,,0.00,weatherlink.com 1.10,2013-01-10 21:05:00,
2013-01-10 16:20:00,61.0,53.0,30.38,ESE,120,3.0,5.0,74,0.00,,,0.00,weatherlink.com 1.10,2013-01-10 21:20:00,
2013-01-10 16:35:00,60.8,53.0,30.37,ESE,104,2.0,3.0,75,0.00,,,0.00,weatherlink.com 1.10,2013-01-10 21:35:00,
2013-01-10 16:50:00,60.0,52.0,30.37,ESE,116,4.0,6.0,76,0.00,,,0.00,weatherlink.com 1.10,2013-01-10 21:50:00,
2013-01-10 17:05:00,59.7,52.0,30.37,ESE,110,5.0,6.0,77,0.00,,,0.00,weatherlink.com 1.10,2013-01-10 22:05:00,
2013-01-10 17:20:00,59.8,52.0,30.36,ESE,122,3.0,6.0,76,0.00,,,0.00,weatherlink.com 1.10,2013-01-10 22:20:00,
2013-01-10 17:36:00,59.3,52.0,30.35,East,96,5.0,7.0,77,0.00,,,0.00,weatherlink.com 1.10,2013-01-10 22:36:00,
2013-01-10 17:51:00,59.1,52.0,30.35,ESE,111,4.0,8.0,78,0.00,,,0.00,weatherlink.com 1.10,2013-01-10 22:51:00,
2013-01-10 18:06:00,58.9,52.0,30.34,East,84,6.0,10.0,79,0.00,,,0.00,weatherlink.com 1.10,2013-01-10 23:06:00,
2013-01-10 18:21:00,58.7,52.0,30.34,East,98,5.0,8.0,79,0.00,,,0.00,weatherlink.com 1.10,2013-01-10 23:21:00,
2013-01-10 18:36:00,58.7,52.0,30.34,ENE,74,1.0,7.0,79,0.00,,,0.00,weatherlink.com 1.10,2013-01-10 23:36:00,
2013-01-10 18:51:00,59.0,52.0,30.34,East,82,2.0,6.0,78,0.00,,,0.00,weatherlink.com 1.10,2013-01-10 23:51:00,
2013-01-10 19:06:00,59.0,52.0,30.34,ENE,70,4.0,4.0,78,0.00,,,0.00,weatherlink.com 1.10,2013-01-11 00:06:00,
2013-01-10 19:21:00,59.0,52.0,30.33,East,80,4.0,6.0,78,0.00,,,0.00,weatherlink.com 1.10,2013-01-11 00:21:00,
2013-01-10 19:36:00,58.6,52.0,30.32,East,96,3.0,7.0,79,0.00,,,0.00,weatherlink.com 1.10,2013-01-11 00:36:00,
2013-01-10 19:51:00,58.4,52.0,30.32,East,88,6.0,6.0,79,0.00,,,0.00,weatherlink.com 1.10,2013-01-11 00:51:00,
2013-01-10 20:06:00,58.2,52.0,30.31,ENE,76,4.0,8.0,79,0.00,,,0.00,weatherlink.com 1.10,2013-01-11 01:06:00,
2013-01-10 20:21:00,58.5,52.0,30.29,East,84,7.0,9.0,78,0.00,,,0.00,weatherlink.com 1.10,2013-01-11 01:21:00,
2013-01-10 20:36:00,58.9,52.0,30.29,ENE,76,6.0,8.0,78,0.00,,,0.00,weatherlink.com 1.10,2013-01-11 01:36:00,
2013-01-10 20:51:00,59.3,52.0,30.29,ENE,75,5.0,8.0,77,0.00,,,0.00,weatherlink.com 1.10,2013-01-11 01:51:00,
2013-01-10 21:06:00,59.4,52.0,30.29,East,98,7.0,8.0,76,0.00,,,0.00,weatherlink.com 1.10,2013-01-11 02:06:00,
2013-01-10 21:21:00,59.2,52.0,30.29,East,82,7.0,9.0,77,0.00,,,0.00,weatherlink.com 1.10,2013-01-11 02:21:00,
2013-01-10 21:36:00,59.0,52.0,30.27,North,353,1.0,8.0,77,0.00,,,0.00,weatherlink.com 1.10,2013-01-11 02:36:00,
2013-01-10 22:06:00,58.7,52.0,30.25,East,82,9.0,9.0,78,0.00,,,0.00,weatherlink.com 1.10,2013-01-11 03:06:00,
2013-01-10 22:21:00,57.9,52.0,30.24,East,89,5.0,9.0,80,0.00,,,0.00,weatherlink.com 1.10,2013-01-11 03:21:00,
2013-01-10 22:36:00,57.9,52.0,30.25,East,96,5.0,8.0,80,0.00,,,0.00,weatherlink.com 1.10,2013-01-11 03:36:00,
2013-01-10 22:51:00,57.6,52.0,30.25,East,96,4.0,7.0,80,0.00,,,0.00,weatherlink.com 1.10,2013-01-11 03:51:00,
2013-01-10 23:06:00,57.8,52.0,30.25,East,96,6.0,8.0,80,0.00,,,0.00,weatherlink.com 1.10,2013-01-11 04:06:00,
2013-01-10 23:21:00,57.5,51.0,30.24,ESE,102,6.0,8.0,80,0.00,,,0.00,weatherlink.com 1.10,2013-01-11 04:21:00,
2013-01-10 23:36:00,57.3,52.0,30.24,ESE,105,4.0,9.0,81,0.00,,,0.00,weatherlink.com 1.10,2013-01-11 04:36:00,
2013-01-10 23:51:00,58.2,51.0,30.22,ESE,119,6.0,11.0,78,0.00,,,0.00,weatherlink.com 1.10,2013-01-11 04:51:00,